VECCVEGY

Guest
Details From VECC - NETAJI SUBHASH CHANDRA BOSE INTL
To VEGY - GAYA
Flight Number -
Tags generated
Created
Modified
Stats Distance 230 nm / 425 km
Max Altitude 0 ft / 0 m
Waypoints 2
Social Downloads 0
Likes 0
Share VATSIM

Download

Looking for another format? Having issues loading an existing format? Contact us
Advertisement - Login to hide

Notes

Basic altitude profile: - Ascent Rate: 700ft/min - Ascent Speed: 110kts - Cruise Altitude: 9000ft - Cruise Speed: 140kts - Descent Rate: 600ft/min - Descent Speed: 130kts Options: - Use NATs: no - Use PACOTS: no - Use low airways: no - Use high airways: no

Route

VECC VEGY

ID Type Via Altitude Latitude Longitude Leg Dist Tot Dist Heading (true) Name
O VECC APT - 0 ft / 0 m 22.65562˚ 88.44686˚ - 0 nm - NETAJI SUBHASH CHANDRA BOSE INTL
O VEGY APT - 0 ft / 0 m 24.74431˚ 84.95118˚ 229 nm 229 nm 304° / 302° GAYA

Altitude Profile

Advertisement - Login to hide

Weather


0- 5 10 15 20 25 30 35+ Temperature / ° C

Clouds and Precipitation
Forecast for 2017-12-15 06:00 UTC. Updated an hour ago

Ground ~20,000 ft ~40,000 ft Winds

VECC

Details ICAO VECC (CCU)
Name NETAJI SUBHASH CHANDRA BOSE INTL
Region India
Timezone Asia/Kolkata (UTC+5.5)
Stats Elevation 16 ft / 5 m (AMSL)
Location 22.655618° 88.446856°
Runways 2
Magnetic Variation 0.226° W

METAR

VECC 150630Z 02006KT 3500 HZ NSC 26/16 Q1016 NOSIG

Decode

TAF

TAF VECC 150500Z 1506/1612 01005T 3200 HZ NSC BECMG 1513/1515 00000KT 2200 BR BECMG 1523/1601 1400 BR BECMG 1603/1605 2200 BR BECMG 1606/1608 3500 HZ

Decode

Departure Runways

ID Width Length Bearing (true) Bearing (mag) Surface Threshold Offset Overrun Length
01L 151 ft / 46 m 9,329 ft / 2,843 m 6.17° 6.40° Asphalt 0 ft / 0 m 0 ft / 0 m
01R 151 ft / 46 m 11,790 ft / 3,594 m 6.20° 6.43° Asphalt 0 ft / 0 m 213 ft / 65 m
19L 151 ft / 46 m 11,790 ft / 3,594 m 186.20° 186.43° Asphalt 1,211 ft / 369 m 682 ft / 208 m
19R 151 ft / 46 m 9,329 ft / 2,843 m 186.17° 186.40° Asphalt 764 ft / 233 m 748 ft / 228 m

VEGY

Details ICAO VEGY (GAY)
Name GAYA
Region India
Timezone Asia/Kolkata (UTC+5.5)
Stats Elevation 380 ft / 116 m (AMSL)
Location 24.744308° 84.951175°
Runways 1
Magnetic Variation 0.153° E

METAR

VEGY 150630Z 29012KT 3500 HZ NSC 26/07 Q1017 NOSIG

Decode

TAF

Not found

Destination Runways

ID Width Length Bearing (true) Bearing (mag) Surface Threshold Offset Overrun Length
10 148 ft / 45 m 7,478 ft / 2,279 m 103.80° 103.65° Asphalt 0 ft / 0 m 0 ft / 0 m
28 148 ft / 45 m 7,478 ft / 2,279 m 283.81° 283.66° Asphalt 245 ft / 75 m 0 ft / 0 m

Popular Alternatives